sensor_id;sensor_type;location;lat;lon;timestamp;pressure;altitude;pressure_sealevel;temperature;humidity
67517;BME280;54359;59.124;37.910;2023-02-17T00:01:21;100762.78;;;-7.25;76.31
67517;BME280;54359;59.124;37.910;2023-02-17T00:03:48;100756.59;;;-7.20;76.32
67517;BME280;54359;59.124;37.910;2023-02-17T00:06:17;100750.13;;;-7.18;75.56
67517;BME280;54359;59.124;37.910;2023-02-17T00:08:43;100748.06;;;-7.14;76.21
67517;BME280;54359;59.124;37.910;2023-02-17T00:11:08;100750.41;;;-7.15;76.20
67517;BME280;54359;59.124;37.910;2023-02-17T00:13:34;100727.97;;;-7.24;75.96
67517;BME280;54359;59.124;37.910;2023-02-17T00:16:10;100737.22;;;-7.23;76.91
67517;BME280;54359;59.124;37.910;2023-02-17T00:18:37;100730.31;;;-7.25;75.71
67517;BME280;54359;59.124;37.910;2023-02-17T00:21:15;100735.94;;;-7.28;76.89
67517;BME280;54359;59.124;37.910;2023-02-17T00:23:42;100724.03;;;-7.39;76.43
67517;BME280;54359;59.124;37.910;2023-02-17T00:26:08;100729.44;;;-7.35;76.50
67517;BME280;54359;59.124;37.910;2023-02-17T00:28:34;100732.84;;;-7.34;76.68
67517;BME280;54359;59.124;37.910;2023-02-17T00:31:05;100723.31;;;-7.38;76.73
67517;BME280;54359;59.124;37.910;2023-02-17T00:33:31;100736.53;;;-7.39;76.18
67517;BME280;54359;59.124;37.910;2023-02-17T00:35:57;100726.84;;;-7.45;76.21
67517;BME280;54359;59.124;37.910;2023-02-17T00:38:23;100718.66;;;-7.53;75.58
67517;BME280;54359;59.124;37.910;2023-02-17T00:40:48;100733.03;;;-7.50;75.72
67517;BME280;54359;59.124;37.910;2023-02-17T00:43:14;100729.19;;;-7.55;76.31
67517;BME280;54359;59.124;37.910;2023-02-17T00:45:40;100731.88;;;-7.62;75.61
67517;BME280;54359;59.124;37.910;2023-02-17T00:48:05;100728.81;;;-7.69;75.22
67517;BME280;54359;59.124;37.910;2023-02-17T00:50:31;100731.00;;;-7.72;75.84
67517;BME280;54359;59.124;37.910;2023-02-17T00:52:57;100729.09;;;-7.74;76.37
67517;BME280;54359;59.124;37.910;2023-02-17T00:55:22;100720.44;;;-7.78;76.51
67517;BME280;54359;59.124;37.910;2023-02-17T00:57:48;100729.09;;;-7.74;76.55
67517;BME280;54359;59.124;37.910;2023-02-17T01:00:14;100719.97;;;-7.74;76.43
67517;BME280;54359;59.124;37.910;2023-02-17T01:02:43;100719.97;;;-7.74;76.60
67517;BME280;54359;59.124;37.910;2023-02-17T01:05:09;100717.50;;;-7.74;75.86
67517;BME280;54359;59.124;37.910;2023-02-17T01:07:34;100721.75;;;-7.73;76.20
67517;BME280;54359;59.124;37.910;2023-02-17T01:10:03;100717.19;;;-7.68;76.23
67517;BME280;54359;59.124;37.910;2023-02-17T01:12:29;100694.16;;;-7.74;75.85
67517;BME280;54359;59.124;37.910;2023-02-17T01:14:56;100707.38;;;-7.66;76.00
67517;BME280;54359;59.124;37.910;2023-02-17T01:17:22;100691.50;;;-7.76;76.46
67517;BME280;54359;59.124;37.910;2023-02-17T01:19:48;100692.72;;;-7.81;75.53
67517;BME280;54359;59.124;37.910;2023-02-17T01:22:15;100692.13;;;-7.87;75.88
67517;BME280;54359;59.124;37.910;2023-02-17T01:24:40;100697.41;;;-7.93;75.88
67517;BME280;54359;59.124;37.910;2023-02-17T01:27:06;100691.25;;;-8.05;76.30
67517;BME280;54359;59.124;37.910;2023-02-17T01:29:32;100699.19;;;-8.09;76.14
67517;BME280;54359;59.124;37.910;2023-02-17T01:31:57;100690.09;;;-8.17;76.00
67517;BME280;54359;59.124;37.910;2023-02-17T01:34:26;100706.06;;;-8.24;76.11
67517;BME280;54359;59.124;37.910;2023-02-17T01:36:51;100695.50;;;-8.30;76.09
67517;BME280;54359;59.124;37.910;2023-02-17T01:39:17;100691.84;;;-8.34;76.06
67517;BME280;54359;59.124;37.910;2023-02-17T01:41:45;100677.34;;;-8.46;76.04
67517;BME280;54359;59.124;37.910;2023-02-17T01:44:19;100684.41;;;-8.42;76.21
67517;BME280;54359;59.124;37.910;2023-02-17T01:46:48;100677.03;;;-8.50;76.20
67517;BME280;54359;59.124;37.910;2023-02-17T01:52:07;100680.28;;;-8.59;75.98
67517;BME280;54359;59.124;37.910;2023-02-17T01:54:57;100681.88;;;-8.60;76.14
67517;BME280;54359;59.124;37.910;2023-02-17T01:57:29;100678.78;;;-8.66;76.63
67517;BME280;54359;59.124;37.910;2023-02-17T01:59:56;100680.56;;;-8.65;76.40
67517;BME280;54359;59.124;37.910;2023-02-17T02:02:23;100682.16;;;-8.65;76.34
67517;BME280;54359;59.124;37.910;2023-02-17T02:04:52;100681.84;;;-8.68;76.41
67517;BME280;54359;59.124;37.910;2023-02-17T02:07:22;100687.00;;;-8.67;76.33
67517;BME280;54359;59.124;37.910;2023-02-17T02:09:54;100684.66;;;-8.65;76.62
67517;BME280;54359;59.124;37.910;2023-02-17T02:12:25;100678.06;;;-8.65;76.03
67517;BME280;54359;59.124;37.910;2023-02-17T02:14:55;100685.09;;;-8.61;76.48
67517;BME280;54359;59.124;37.910;2023-02-17T02:38:10;100680.69;;;-8.37;76.27
67517;BME280;54359;59.124;37.910;2023-02-17T02:40:43;100685.97;;;-8.34;76.81
67517;BME280;54359;59.124;37.910;2023-02-17T02:43:13;100677.31;;;-8.38;76.83
67517;BME280;54359;59.124;37.910;2023-02-17T02:45:39;100687.72;;;-8.33;77.08
67517;BME280;54359;59.124;37.910;2023-02-17T02:48:05;100688.03;;;-8.30;76.95
67517;BME280;54359;59.124;37.910;2023-02-17T02:59:23;100682.16;;;-8.13;76.54
67517;BME280;54359;59.124;37.910;2023-02-17T03:04:56;100679.81;;;-8.03;76.42
67517;BME280;54359;59.124;37.910;2023-02-17T03:10:05;100681.13;;;-8.06;76.86
67517;BME280;54359;59.124;37.910;2023-02-17T03:12:34;100675.84;;;-8.10;76.95
67517;BME280;54359;59.124;37.910;2023-02-17T03:15:15;100684.97;;;-8.10;77.03
67517;BME280;54359;59.124;37.910;2023-02-17T03:17:44;100682.16;;;-8.13;76.77
67517;BME280;54359;59.124;37.910;2023-02-17T03:20:12;100687.00;;;-8.15;76.71
67517;BME280;54359;59.124;37.910;2023-02-17T03:22:42;100681.13;;;-8.24;76.59
67517;BME280;54359;59.124;37.910;2023-02-17T03:25:09;100688.91;;;-8.30;76.30
67517;BME280;54359;59.124;37.910;2023-02-17T03:27:35;100690.09;;;-8.35;76.67
67517;BME280;54359;59.124;37.910;2023-02-17T03:30:01;100688.50;;;-8.43;76.55
67517;BME280;54359;59.124;37.910;2023-02-17T03:32:27;100688.94;;;-8.47;76.74
67517;BME280;54359;59.124;37.910;2023-02-17T03:34:53;100682.78;;;-8.51;76.60
67517;BME280;54359;59.124;37.910;2023-02-17T03:37:19;100679.09;;;-8.54;76.83
67517;BME280;54359;59.124;37.910;2023-02-17T03:39:44;100679.97;;;-8.54;76.46
67517;BME280;54359;59.124;37.910;2023-02-17T03:42:10;100681.31;;;-8.57;76.69
67517;BME280;54359;59.124;37.910;2023-02-17T03:44:36;100673.94;;;-8.64;76.43
67517;BME280;54359;59.124;37.910;2023-02-17T03:47:02;100690.69;;;-8.63;76.50
67517;BME280;54359;59.124;37.910;2023-02-17T03:49:28;100683.16;;;-8.72;76.86
67517;BME280;54359;59.124;37.910;2023-02-17T03:51:53;100693.72;;;-8.75;75.81
67517;BME280;54359;59.124;37.910;2023-02-17T03:54:19;100699.28;;;-8.86;75.97
67517;BME280;54359;59.124;37.910;2023-02-17T03:56:45;100680.72;;;-9.05;76.58
67517;BME280;54359;59.124;37.910;2023-02-17T03:59:11;100687.91;;;-9.08;76.07
67517;BME280;54359;59.124;37.910;2023-02-17T04:01:37;100691.69;;;-9.21;76.74
67517;BME280;54359;59.124;37.910;2023-02-17T04:04:02;100688.41;;;-9.28;76.59
67517;BME280;54359;59.124;37.910;2023-02-17T04:06:28;100688.69;;;-9.34;76.39
67517;BME280;54359;59.124;37.910;2023-02-17T04:08:54;100706.84;;;-9.35;76.67
67517;BME280;54359;59.124;37.910;2023-02-17T04:11:20;100704.78;;;-9.39;75.55
67517;BME280;54359;59.124;37.910;2023-02-17T04:13:45;100694.31;;;-9.44;76.78
67517;BME280;54359;59.124;37.910;2023-02-17T04:16:11;100701.38;;;-9.40;75.91
67517;BME280;54359;59.124;37.910;2023-02-17T04:18:38;100697.44;;;-9.38;76.41
67517;BME280;54359;59.124;37.910;2023-02-17T04:21:04;100705.38;;;-9.33;76.69
67517;BME280;54359;59.124;37.910;2023-02-17T04:23:30;100705.25;;;-9.26;76.32
67517;BME280;54359;59.124;37.910;2023-02-17T04:26:00;100703.38;;;-9.20;77.45
67517;BME280;54359;59.124;37.910;2023-02-17T04:28:26;100683.00;;;-9.24;77.35
67517;BME280;54359;59.124;37.910;2023-02-17T04:30:52;100682.44;;;-9.22;77.38
67517;BME280;54359;59.124;37.910;2023-02-17T04:33:18;100699.63;;;-9.07;77.17
67517;BME280;54359;59.124;37.910;2023-02-17T04:35:46;100707.25;;;-9.06;76.30
67517;BME280;54359;59.124;37.910;2023-02-17T04:38:12;100688.91;;;-9.15;77.24
67517;BME280;54359;59.124;37.910;2023-02-17T04:40:37;100691.53;;;-9.14;76.96
67517;BME280;54359;59.124;37.910;2023-02-17T04:43:07;100694.34;;;-9.11;76.94
67517;BME280;54359;59.124;37.910;2023-02-17T04:45:36;100704.34;;;-9.02;76.77
67517;BME280;54359;59.124;37.910;2023-02-17T04:48:02;100700.38;;;-9.00;77.19
67517;BME280;54359;59.124;37.910;2023-02-17T04:50:28;100695.41;;;-9.00;76.62
67517;BME280;54359;59.124;37.910;2023-02-17T04:52:54;100681.41;;;-9.15;76.25
67517;BME280;54359;59.124;37.910;2023-02-17T04:55:20;100690.09;;;-9.12;76.60
67517;BME280;54359;59.124;37.910;2023-02-17T04:57:45;100700.81;;;-9.04;76.89
67517;BME280;54359;59.124;37.910;2023-02-17T05:00:11;100692.41;;;-9.13;76.75
67517;BME280;54359;59.124;37.910;2023-02-17T05:02:38;100700.66;;;-9.05;77.04
67517;BME280;54359;59.124;37.910;2023-02-17T05:05:04;100702.28;;;-9.06;76.87
67517;BME280;54359;59.124;37.910;2023-02-17T05:07:30;100686.59;;;-9.05;77.04
67517;BME280;54359;59.124;37.910;2023-02-17T05:09:56;100701.25;;;-9.08;76.98
67517;BME280;54359;59.124;37.910;2023-02-17T05:12:22;100704.31;;;-9.11;76.91
67517;BME280;54359;59.124;37.910;2023-02-17T05:14:49;100705.34;;;-9.08;76.39
67517;BME280;54359;59.124;37.910;2023-02-17T05:17:16;100688.75;;;-9.17;77.03
67517;BME280;54359;59.124;37.910;2023-02-17T05:19:43;100702.56;;;-9.03;76.78
67517;BME280;54359;59.124;37.910;2023-02-17T05:22:08;100699.63;;;-9.07;77.16
67517;BME280;54359;59.124;37.910;2023-02-17T05:24:34;100701.41;;;-9.06;76.71
67517;BME280;54359;59.124;37.910;2023-02-17T05:27:00;100692.00;;;-9.09;77.70
67517;BME280;54359;59.124;37.910;2023-02-17T05:29:27;100699.63;;;-9.07;76.76
67517;BME280;54359;59.124;37.910;2023-02-17T05:31:52;100697.28;;;-9.06;77.09
67517;BME280;54359;59.124;37.910;2023-02-17T05:34:18;100696.00;;;-9.02;76.76
67517;BME280;54359;59.124;37.910;2023-02-17T05:36:44;100693.78;;;-8.99;76.88
67517;BME280;54359;59.124;37.910;2023-02-17T05:39:10;100702.91;;;-8.91;77.29
67517;BME280;54359;59.124;37.910;2023-02-17T05:41:40;100697.22;;;-8.90;76.70
67517;BME280;54359;59.124;37.910;2023-02-17T05:44:06;100685.47;;;-8.91;76.73
67517;BME280;54359;59.124;37.910;2023-02-17T05:46:32;100678.88;;;-8.91;76.99
67517;BME280;54359;59.124;37.910;2023-02-17T05:48:57;100691.66;;;-8.79;76.77
67517;BME280;54359;59.124;37.910;2023-02-17T05:51:23;100687.25;;;-8.81;75.86
67517;BME280;54359;59.124;37.910;2023-02-17T05:53:49;100689.91;;;-8.80;76.47
67517;BME280;54359;59.124;37.910;2023-02-17T05:56:15;100692.69;;;-8.77;76.86
67517;BME280;54359;59.124;37.910;2023-02-17T05:58:42;100680.81;;;-8.79;76.69
67517;BME280;54359;59.124;37.910;2023-02-17T06:01:09;100689.47;;;-8.76;76.23
67517;BME280;54359;59.124;37.910;2023-02-17T06:03:36;100684.78;;;-8.73;76.90
67517;BME280;54359;59.124;37.910;2023-02-17T06:06:02;100668.66;;;-8.76;76.58
67517;BME280;54359;59.124;37.910;2023-02-17T06:08:28;100674.53;;;-8.67;77.01
67517;BME280;54359;59.124;37.910;2023-02-17T06:10:54;100683.78;;;-8.57;76.64
67517;BME280;54359;59.124;37.910;2023-02-17T06:13:21;100666.31;;;-8.66;76.76
67517;BME280;54359;59.124;37.910;2023-02-17T06:15:47;100675.72;;;-8.55;76.07
67517;BME280;54359;59.124;37.910;2023-02-17T06:18:13;100688.94;;;-8.47;76.46
67517;BME280;54359;59.124;37.910;2023-02-17T06:20:41;100683.22;;;-8.46;76.57
67517;BME280;54359;59.124;37.910;2023-02-17T06:23:07;100673.25;;;-8.55;75.96
67517;BME280;54359;59.124;37.910;2023-02-17T06:25:45;100682.19;;;-8.57;76.13
67517;BME280;54359;59.124;37.910;2023-02-17T06:28:11;100679.69;;;-8.65;75.89
67517;BME280;54359;59.124;37.910;2023-02-17T06:30:36;100688.03;;;-8.56;75.64
67517;BME280;54359;59.124;37.910;2023-02-17T06:33:05;100684.50;;;-8.58;76.13
67517;BME280;54359;59.124;37.910;2023-02-17T06:35:31;100679.69;;;-8.65;75.87
67517;BME280;54359;59.124;37.910;2023-02-17T06:38:00;100678.78;;;-8.66;76.21
67517;BME280;54359;59.124;37.910;2023-02-17T06:40:25;100676.59;;;-8.72;75.90
67517;BME280;54359;59.124;37.910;2023-02-17T06:42:52;100679.22;;;-8.70;75.60
67517;BME280;54359;59.124;37.910;2023-02-17T06:45:20;100690.25;;;-8.59;76.41
67517;BME280;54359;59.124;37.910;2023-02-17T06:47:48;100672.06;;;-8.58;76.58
67517;BME280;54359;59.124;37.910;2023-02-17T06:50:22;100667.81;;;-8.59;76.27
67517;BME280;54359;59.124;37.910;2023-02-17T06:52:49;100696.09;;;-8.41;76.19
67517;BME280;54359;59.124;37.910;2023-02-17T06:55:19;100673.94;;;-8.56;75.98
67517;BME280;54359;59.124;37.910;2023-02-17T06:57:47;100683.38;;;-8.53;76.35
67517;BME280;54359;59.124;37.910;2023-02-17T07:00:13;100662.25;;;-8.65;75.79
67517;BME280;54359;59.124;37.910;2023-02-17T07:02:39;100674.69;;;-8.57;76.62
67517;BME280;54359;59.124;37.910;2023-02-17T07:05:07;100694.81;;;-8.46;76.09
67517;BME280;54359;59.124;37.910;2023-02-17T07:07:33;100684.81;;;-8.46;75.78
67517;BME280;54359;59.124;37.910;2023-02-17T07:10:01;100682.03;;;-8.50;75.86
67517;BME280;54359;59.124;37.910;2023-02-17T07:12:29;100678.38;;;-8.44;76.38
67517;BME280;54359;59.124;37.910;2023-02-17T07:14:57;100662.41;;;-8.55;75.88
67517;BME280;54359;59.124;37.910;2023-02-17T07:17:24;100682.31;;;-8.38;75.87
67517;BME280;54359;59.124;37.910;2023-02-17T07:19:59;100665.31;;;-8.42;75.44
67517;BME280;54359;59.124;37.910;2023-02-17T07:22:30;100667.19;;;-8.39;75.39
67517;BME280;54359;59.124;37.910;2023-02-17T07:24:57;100677.91;;;-8.32;75.74
67517;BME280;54359;59.124;37.910;2023-02-17T07:27:26;100659.00;;;-8.38;75.72
67517;BME280;54359;59.124;37.910;2023-02-17T07:29:52;100671.03;;;-8.34;75.54
67517;BME280;54359;59.124;37.910;2023-02-17T07:32:18;100672.47;;;-8.27;76.39
67517;BME280;54359;59.124;37.910;2023-02-17T07:34:45;100658.38;;;-8.27;75.71
67517;BME280;54359;59.124;37.910;2023-02-17T07:37:13;100654.44;;;-8.25;76.06
67517;BME280;54359;59.124;37.910;2023-02-17T07:39:50;100670.44;;;-8.14;76.10
67517;BME280;54359;59.124;37.910;2023-02-17T07:42:19;100664.41;;;-8.07;75.57
67517;BME280;54359;59.124;37.910;2023-02-17T07:44:48;100663.22;;;-8.02;75.09
67517;BME280;54359;59.124;37.910;2023-02-17T07:47:14;100671.84;;;-7.90;75.97
67517;BME280;54359;59.124;37.910;2023-02-17T07:49:44;100652.66;;;-7.91;75.42
67517;BME280;54359;59.124;37.910;2023-02-17T07:52:14;100646.19;;;-7.89;76.48
67517;BME280;54359;59.124;37.910;2023-02-17T07:54:40;100651.91;;;-7.81;75.85
67517;BME280;54359;59.124;37.910;2023-02-17T07:57:07;100653.97;;;-7.77;75.15
67517;BME280;54359;59.124;37.910;2023-02-17T07:59:34;100657.78;;;-7.81;75.39
67517;BME280;54359;59.124;37.910;2023-02-17T08:01:59;100626.97;;;-7.99;75.29
67517;BME280;54359;59.124;37.910;2023-02-17T08:04:27;100661.13;;;-7.72;75.56
67517;BME280;54359;59.124;37.910;2023-02-17T08:06:53;100653.47;;;-7.64;75.54
67517;BME280;54359;59.124;37.910;2023-02-17T08:09:19;100646.09;;;-7.54;75.69
67517;BME280;54359;59.124;37.910;2023-02-17T08:12:04;100634.78;;;-7.51;76.03
67517;BME280;54359;59.124;37.910;2023-02-17T08:14:48;100636.19;;;-7.35;75.84
67517;BME280;54359;59.124;37.910;2023-02-17T08:17:15;100633.06;;;-7.24;75.56
67517;BME280;54359;59.124;37.910;2023-02-17T08:19:43;100639.50;;;-7.17;75.70
67517;BME280;54359;59.124;37.910;2023-02-17T08:22:10;100625.75;;;-7.03;75.35
67517;BME280;54359;59.124;37.910;2023-02-17T08:24:36;100624.69;;;-6.97;76.46
67517;BME280;54359;59.124;37.910;2023-02-17T08:27:01;100616.31;;;-6.97;75.67
67517;BME280;54359;59.124;37.910;2023-02-17T08:29:27;100617.34;;;-6.95;75.19
67517;BME280;54359;59.124;37.910;2023-02-17T08:32:00;100633.44;;;-6.83;76.49
67517;BME280;54359;59.124;37.910;2023-02-17T08:34:30;100619.72;;;-6.78;76.17
67517;BME280;54359;59.124;37.910;2023-02-17T08:37:00;100627.75;;;-6.72;76.15
67517;BME280;54359;59.124;37.910;2023-02-17T08:39:26;100607.50;;;-6.75;75.50
67517;BME280;54359;59.124;37.910;2023-02-17T08:41:55;100617.91;;;-6.70;75.38
67517;BME280;54359;59.124;37.910;2023-02-17T08:44:24;100621.50;;;-6.58;75.22
67517;BME280;54359;59.124;37.910;2023-02-17T08:46:55;100618.22;;;-6.57;75.97
67517;BME280;54359;59.124;37.910;2023-02-17T08:49:24;100618.22;;;-6.57;76.27
67517;BME280;54359;59.124;37.910;2023-02-17T08:51:50;100599.06;;;-6.66;75.75
67517;BME280;54359;59.124;37.910;2023-02-17T08:54:19;100615.69;;;-6.48;76.21
67517;BME280;54359;59.124;37.910;2023-02-17T08:56:45;100614.44;;;-6.43;75.02
67517;BME280;54359;59.124;37.910;2023-02-17T08:59:12;100602.16;;;-6.50;75.68
67517;BME280;54359;59.124;37.910;2023-02-17T09:01:40;100613.72;;;-6.42;76.49
67517;BME280;54359;59.124;37.910;2023-02-17T09:04:10;100619.13;;;-6.37;75.84
67517;BME280;54359;59.124;37.910;2023-02-17T09:06:46;100619.13;;;-6.37;76.37
67517;BME280;54359;59.124;37.910;2023-02-17T09:09:18;100609.84;;;-6.38;76.20
67517;BME280;54359;59.124;37.910;2023-02-17T09:11:47;100615.13;;;-6.35;75.00
67517;BME280;54359;59.124;37.910;2023-02-17T09:14:14;100599.72;;;-6.40;74.77
67517;BME280;54359;59.124;37.910;2023-02-17T09:16:40;100609.78;;;-6.30;74.86
67517;BME280;54359;59.124;37.910;2023-02-17T09:19:10;100602.28;;;-6.30;75.23
67517;BME280;54359;59.124;37.910;2023-02-17T09:21:38;100593.69;;;-6.23;75.11
67517;BME280;54359;59.124;37.910;2023-02-17T09:24:05;100583.34;;;-6.17;74.98
67517;BME280;54359;59.124;37.910;2023-02-17T09:26:34;100575.34;;;-6.13;75.34
67517;BME280;54359;59.124;37.910;2023-02-17T09:29:06;100587.66;;;-5.96;75.64
67517;BME280;54359;59.124;37.910;2023-02-17T09:31:35;100586.66;;;-5.88;75.40
67517;BME280;54359;59.124;37.910;2023-02-17T09:34:08;100571.16;;;-5.83;75.20
67517;BME280;54359;59.124;37.910;2023-02-17T09:36:38;100580.34;;;-5.63;75.47
67517;BME280;54359;59.124;37.910;2023-02-17T09:39:10;100576.50;;;-5.60;75.39
67517;BME280;54359;59.124;37.910;2023-02-17T09:41:44;100573.25;;;-5.49;75.55
67517;BME280;54359;59.124;37.910;2023-02-17T09:44:23;100565.88;;;-5.27;75.44
67517;BME280;54359;59.124;37.910;2023-02-17T09:46:52;100570.53;;;-5.11;75.10
67517;BME280;54359;59.124;37.910;2023-02-17T09:49:24;100539.47;;;-5.13;75.29
67517;BME280;54359;59.124;37.910;2023-02-17T09:52:10;100557.75;;;-4.93;74.78
67517;BME280;54359;59.124;37.910;2023-02-17T09:54:52;100520.78;;;-5.16;75.43
67517;BME280;54359;59.124;37.910;2023-02-17T09:57:27;100558.75;;;-4.91;74.33
67517;BME280;54359;59.124;37.910;2023-02-17T09:59:58;100554.72;;;-4.99;74.81
67517;BME280;54359;59.124;37.910;2023-02-17T10:03:06;100498.47;;;-5.34;74.83
67517;BME280;54359;59.124;37.910;2023-02-17T10:05:39;100540.97;;;-5.04;74.88
67517;BME280;54359;59.124;37.910;2023-02-17T10:08:15;100544.72;;;-4.99;74.92
67517;BME280;54359;59.124;37.910;2023-02-17T10:10:58;100531.03;;;-5.03;74.88
67517;BME280;54359;59.124;37.910;2023-02-17T10:13:30;100535.03;;;-4.95;75.28
67517;BME280;54359;59.124;37.910;2023-02-17T10:16:05;100527.78;;;-4.92;74.77
67517;BME280;54359;59.124;37.910;2023-02-17T10:19:10;100529.44;;;-4.92;74.74
67517;BME280;54359;59.124;37.910;2023-02-17T10:21:47;100522.41;;;-4.96;74.60
67517;BME280;54359;59.124;37.910;2023-02-17T10:24:16;100514.63;;;-4.99;74.60
67517;BME280;54359;59.124;37.910;2023-02-17T10:33:37;100507.00;;;-5.11;74.76
67517;BME280;54359;59.124;37.910;2023-02-17T10:38:55;100503.38;;;-5.04;74.88
67517;BME280;54359;59.124;37.910;2023-02-17T10:41:35;100497.09;;;-4.99;74.31
67517;BME280;54359;59.124;37.910;2023-02-17T10:44:08;100479.53;;;-4.99;74.83
67517;BME280;54359;59.124;37.910;2023-02-17T10:46:39;100471.00;;;-4.91;74.38
67517;BME280;54359;59.124;37.910;2023-02-17T10:49:15;100471.22;;;-4.78;74.79
67517;BME280;54359;59.124;37.910;2023-02-17T10:51:43;100477.31;;;-4.64;74.71
67517;BME280;54359;59.124;37.910;2023-02-17T10:54:33;100461.44;;;-4.75;74.66
67517;BME280;54359;59.124;37.910;2023-02-17T10:57:02;100463.09;;;-4.86;74.49
67517;BME280;54359;59.124;37.910;2023-02-17T10:59:34;100466.56;;;-4.73;75.27
67517;BME280;54359;59.124;37.910;2023-02-17T11:02:17;100465.91;;;-4.06;76.09
67517;BME280;54359;59.124;37.910;2023-02-17T11:04:50;100464.03;;;-3.53;75.83
67517;BME280;54359;59.124;37.910;2023-02-17T11:07:21;100447.94;;;-3.09;74.81
67517;BME280;54359;59.124;37.910;2023-02-17T11:10:00;100440.94;;;-2.54;75.42
67517;BME280;54359;59.124;37.910;2023-02-17T11:12:31;100455.59;;;-2.12;74.88
67517;BME280;54359;59.124;37.910;2023-02-17T11:15:18;100437.22;;;-1.86;74.40
67517;BME280;54359;59.124;37.910;2023-02-17T11:17:46;100432.06;;;-1.87;74.28
67517;BME280;54359;59.124;37.910;2023-02-17T11:23:21;100430.00;;;-2.78;73.93
67517;BME280;54359;59.124;37.910;2023-02-17T11:25:58;100441.59;;;-3.16;74.21
67517;BME280;54359;59.124;37.910;2023-02-17T11:28:24;100437.31;;;-3.40;74.04
67517;BME280;54359;59.124;37.910;2023-02-17T11:31:00;100421.88;;;-3.45;75.24
67517;BME280;54359;59.124;37.910;2023-02-17T11:33:37;100410.53;;;-3.40;75.14
67517;BME280;54359;59.124;37.910;2023-02-17T11:36:05;100436.53;;;-3.39;74.63
67517;BME280;54359;59.124;37.910;2023-02-17T11:38:43;100410.50;;;-3.52;75.43
67517;BME280;54359;59.124;37.910;2023-02-17T11:41:38;100433.25;;;-3.27;75.56
67517;BME280;54359;59.124;37.910;2023-02-17T11:44:09;100430.88;;;-3.13;76.30
67517;BME280;54359;59.124;37.910;2023-02-17T11:46:43;100420.41;;;-3.08;75.79
67517;BME280;54359;59.124;37.910;2023-02-17T11:52:10;100415.81;;;-3.01;76.18
67517;BME280;54359;59.124;37.910;2023-02-17T11:57:38;100401.81;;;-3.21;75.06
67517;BME280;54359;59.124;37.910;2023-02-17T12:00:21;100398.53;;;-3.32;75.40
67517;BME280;54359;59.124;37.910;2023-02-17T12:14:04;100387.03;;;-3.86;75.34
67517;BME280;54359;59.124;37.910;2023-02-17T12:22:22;100390.88;;;-4.13;75.64
67517;BME280;54359;59.124;37.910;2023-02-17T12:24:57;100380.25;;;-4.21;75.26
67517;BME280;54359;59.124;37.910;2023-02-17T12:27:41;100381.69;;;-4.25;75.25
67517;BME280;54359;59.124;37.910;2023-02-17T12:35:56;100376.41;;;-4.50;75.20
67517;BME280;54359;59.124;37.910;2023-02-17T12:38:35;100363.56;;;-4.65;75.20
67517;BME280;54359;59.124;37.910;2023-02-17T12:41:10;100383.91;;;-4.61;75.42
67517;BME280;54359;59.124;37.910;2023-02-17T12:43:48;100376.41;;;-4.72;75.50
67517;BME280;54359;59.124;37.910;2023-02-17T12:47:09;100370.88;;;-4.68;75.23
67517;BME280;54359;59.124;37.910;2023-02-17T12:52:28;100366.69;;;-4.89;75.20
67517;BME280;54359;59.124;37.910;2023-02-17T12:55:24;100362.25;;;-5.03;75.25
67517;BME280;54359;59.124;37.910;2023-02-17T12:58:03;100367.53;;;-5.11;75.13
67517;BME280;54359;59.124;37.910;2023-02-17T13:01:17;100355.53;;;-5.15;74.90
67517;BME280;54359;59.124;37.910;2023-02-17T13:04:00;100317.00;;;-5.37;75.56
67517;BME280;54359;59.124;37.910;2023-02-17T13:06:40;100319.50;;;-5.37;74.43
67517;BME280;54359;59.124;37.910;2023-02-17T13:09:54;100355.44;;;-5.27;75.34
67517;BME280;54359;59.124;37.910;2023-02-17T13:13:32;100356.56;;;-5.23;74.92
67517;BME280;54359;59.124;37.910;2023-02-17T13:16:09;100329.63;;;-5.36;75.10
67517;BME280;54359;59.124;37.910;2023-02-17T13:18:41;100314.88;;;-5.43;75.35
67517;BME280;54359;59.124;37.910;2023-02-17T13:24:50;100304.38;;;-5.49;75.43
67517;BME280;54359;59.124;37.910;2023-02-17T13:26:46;100334.00;;;-5.23;75.47
67517;BME280;54359;59.124;37.910;2023-02-17T13:31:55;100320.56;;;-5.23;75.07
67517;BME280;54359;59.124;37.910;2023-02-17T13:42:54;100332.38;;;-5.33;75.38
67517;BME280;54359;59.124;37.910;2023-02-17T13:45:28;100318.50;;;-5.39;75.14
67517;BME280;54359;59.124;37.910;2023-02-17T13:47:57;100307.88;;;-5.47;74.75
67517;BME280;54359;59.124;37.910;2023-02-17T13:50:42;100309.53;;;-5.48;75.21
67517;BME280;54359;59.124;37.910;2023-02-17T13:53:28;100299.13;;;-5.62;74.73
67517;BME280;54359;59.124;37.910;2023-02-17T13:56:01;100319.16;;;-5.52;76.03
67517;BME280;54359;59.124;37.910;2023-02-17T13:58:37;100315.91;;;-5.51;74.93
67517;BME280;54359;59.124;37.910;2023-02-17T14:01:11;100314.41;;;-5.49;74.95
67517;BME280;54359;59.124;37.910;2023-02-17T14:06:05;100310.00;;;-5.41;74.97
67517;BME280;54359;59.124;37.910;2023-02-17T14:08:38;100308.38;;;-5.41;75.61
67517;BME280;54359;59.124;37.910;2023-02-17T14:11:20;100274.34;;;-5.49;75.53
67517;BME280;54359;59.124;37.910;2023-02-17T14:13:49;100294.34;;;-5.39;75.56
67517;BME280;54359;59.124;37.910;2023-02-17T14:16:36;100294.47;;;-5.37;75.56
67517;BME280;54359;59.124;37.910;2023-02-17T14:19:15;100293.56;;;-5.38;75.21
67517;BME280;54359;59.124;37.910;2023-02-17T14:22:03;100304.22;;;-5.40;75.12
67517;BME280;54359;59.124;37.910;2023-02-17T14:24:35;100287.56;;;-5.40;75.96
67517;BME280;54359;59.124;37.910;2023-02-17T14:27:09;100264.81;;;-5.53;75.14
67517;BME280;54359;59.124;37.910;2023-02-17T14:29:42;100292.56;;;-5.40;75.21
67517;BME280;54359;59.124;37.910;2023-02-17T14:32:35;100310.00;;;-5.41;76.06
67517;BME280;54359;59.124;37.910;2023-02-17T14:37:41;100286.50;;;-5.54;75.49
67517;BME280;54359;59.124;37.910;2023-02-17T14:40:28;100298.38;;;-5.51;75.63